sensor_id;sensor_type;location;lat;lon;timestamp;P1;durP1;ratioP1;P2;durP2;ratioP2
75012;SDS011;63567;49.956;20.130;2023-05-29T00:01:05;4.77;;;2.30;;
75012;SDS011;63567;49.956;20.130;2023-05-29T00:03:34;3.80;;;2.25;;
75012;SDS011;63567;49.956;20.130;2023-05-29T00:06:01;4.60;;;2.30;;
75012;SDS011;63567;49.956;20.130;2023-05-29T00:08:27;4.38;;;2.15;;
75012;SDS011;63567;49.956;20.130;2023-05-29T00:10:52;4.13;;;2.20;;
75012;SDS011;63567;49.956;20.130;2023-05-29T00:13:18;2.95;;;1.90;;
75012;SDS011;63567;49.956;20.130;2023-05-29T00:15:43;4.63;;;2.00;;
75012;SDS011;63567;49.956;20.130;2023-05-29T00:18:08;4.03;;;1.97;;
75012;SDS011;63567;49.956;20.130;2023-05-29T00:20:34;4.80;;;1.80;;
75012;SDS011;63567;49.956;20.130;2023-05-29T00:22:59;4.05;;;2.22;;
75012;SDS011;63567;49.956;20.130;2023-05-29T00:25:26;4.22;;;2.13;;
75012;SDS011;63567;49.956;20.130;2023-05-29T00:27:52;5.28;;;1.83;;
75012;SDS011;63567;49.956;20.130;2023-05-29T00:30:17;4.13;;;1.87;;
75012;SDS011;63567;49.956;20.130;2023-05-29T00:32:42;4.03;;;1.77;;
75012;SDS011;63567;49.956;20.130;2023-05-29T00:35:08;4.20;;;1.97;;
75012;SDS011;63567;49.956;20.130;2023-05-29T00:37:33;3.95;;;2.05;;
75012;SDS011;63567;49.956;20.130;2023-05-29T00:39:59;4.40;;;1.88;;
75012;SDS011;63567;49.956;20.130;2023-05-29T00:42:24;3.37;;;2.13;;
75012;SDS011;63567;49.956;20.130;2023-05-29T00:44:50;4.90;;;1.90;;
75012;SDS011;63567;49.956;20.130;2023-05-29T00:47:15;4.77;;;2.37;;
75012;SDS011;63567;49.956;20.130;2023-05-29T00:49:40;5.38;;;1.95;;
75012;SDS011;63567;49.956;20.130;2023-05-29T00:52:06;4.37;;;2.10;;
75012;SDS011;63567;49.956;20.130;2023-05-29T00:54:32;5.45;;;2.25;;
75012;SDS011;63567;49.956;20.130;2023-05-29T00:56:59;4.18;;;2.28;;
75012;SDS011;63567;49.956;20.130;2023-05-29T00:59:29;3.88;;;1.73;;
75012;SDS011;63567;49.956;20.130;2023-05-29T01:01:56;5.38;;;1.90;;
75012;SDS011;63567;49.956;20.130;2023-05-29T01:04:23;5.00;;;2.47;;
75012;SDS011;63567;49.956;20.130;2023-05-29T01:06:53;4.32;;;2.40;;
75012;SDS011;63567;49.956;20.130;2023-05-29T01:09:18;4.37;;;2.30;;
75012;SDS011;63567;49.956;20.130;2023-05-29T01:11:54;3.72;;;1.70;;
75012;SDS011;63567;49.956;20.130;2023-05-29T01:14:31;3.25;;;1.92;;
75012;SDS011;63567;49.956;20.130;2023-05-29T01:17:17;3.78;;;2.13;;
75012;SDS011;63567;49.956;20.130;2023-05-29T01:28:27;6.72;;;2.42;;
75012;SDS011;63567;49.956;20.130;2023-05-29T01:30:58;4.68;;;2.03;;
75012;SDS011;63567;49.956;20.130;2023-05-29T01:33:26;4.13;;;1.98;;
75012;SDS011;63567;49.956;20.130;2023-05-29T01:35:52;5.00;;;2.28;;
75012;SDS011;63567;49.956;20.130;2023-05-29T01:38:17;4.60;;;2.10;;
75012;SDS011;63567;49.956;20.130;2023-05-29T01:40:42;3.67;;;2.20;;
75012;SDS011;63567;49.956;20.130;2023-05-29T01:43:08;3.72;;;1.90;;
75012;SDS011;63567;49.956;20.130;2023-05-29T01:45:34;4.07;;;1.95;;
75012;SDS011;63567;49.956;20.130;2023-05-29T01:48:01;4.35;;;2.20;;
75012;SDS011;63567;49.956;20.130;2023-05-29T01:50:26;4.47;;;2.10;;
75012;SDS011;63567;49.956;20.130;2023-05-29T01:52:53;4.97;;;2.35;;
75012;SDS011;63567;49.956;20.130;2023-05-29T01:55:18;4.90;;;2.30;;
75012;SDS011;63567;49.956;20.130;2023-05-29T01:57:43;3.97;;;2.10;;
75012;SDS011;63567;49.956;20.130;2023-05-29T02:00:10;4.72;;;2.42;;
75012;SDS011;63567;49.956;20.130;2023-05-29T02:02:39;5.03;;;2.22;;
75012;SDS011;63567;49.956;20.130;2023-05-29T02:05:05;4.10;;;2.65;;
75012;SDS011;63567;49.956;20.130;2023-05-29T02:07:32;5.20;;;2.28;;
75012;SDS011;63567;49.956;20.130;2023-05-29T02:09:58;4.07;;;2.35;;
75012;SDS011;63567;49.956;20.130;2023-05-29T02:12:23;3.83;;;2.10;;
75012;SDS011;63567;49.956;20.130;2023-05-29T02:14:48;6.03;;;2.33;;
75012;SDS011;63567;49.956;20.130;2023-05-29T02:17:14;6.07;;;2.47;;
75012;SDS011;63567;49.956;20.130;2023-05-29T02:19:40;4.13;;;2.42;;
75012;SDS011;63567;49.956;20.130;2023-05-29T02:22:05;3.88;;;2.05;;
75012;SDS011;63567;49.956;20.130;2023-05-29T02:24:30;3.50;;;1.77;;
75012;SDS011;63567;49.956;20.130;2023-05-29T02:26:56;5.95;;;2.17;;
75012;SDS011;63567;49.956;20.130;2023-05-29T02:29:21;4.40;;;2.35;;
75012;SDS011;63567;49.956;20.130;2023-05-29T02:31:46;3.53;;;1.83;;
75012;SDS011;63567;49.956;20.130;2023-05-29T02:34:12;4.53;;;2.30;;
75012;SDS011;63567;49.956;20.130;2023-05-29T02:36:37;4.63;;;2.20;;
75012;SDS011;63567;49.956;20.130;2023-05-29T02:39:03;4.40;;;2.20;;
75012;SDS011;63567;49.956;20.130;2023-05-29T02:41:29;3.05;;;1.75;;
75012;SDS011;63567;49.956;20.130;2023-05-29T02:43:54;6.50;;;2.33;;
75012;SDS011;63567;49.956;20.130;2023-05-29T02:46:19;3.67;;;2.00;;
75012;SDS011;63567;49.956;20.130;2023-05-29T02:48:46;3.42;;;1.83;;
75012;SDS011;63567;49.956;20.130;2023-05-29T02:51:12;5.10;;;2.03;;
75012;SDS011;63567;49.956;20.130;2023-05-29T02:53:37;4.43;;;2.10;;
75012;SDS011;63567;49.956;20.130;2023-05-29T02:56:02;4.57;;;2.50;;
75012;SDS011;63567;49.956;20.130;2023-05-29T02:58:28;4.15;;;2.00;;
75012;SDS011;63567;49.956;20.130;2023-05-29T03:00:53;3.70;;;2.47;;
75012;SDS011;63567;49.956;20.130;2023-05-29T03:03:18;4.37;;;2.27;;
75012;SDS011;63567;49.956;20.130;2023-05-29T03:05:43;4.63;;;2.00;;
75012;SDS011;63567;49.956;20.130;2023-05-29T03:08:10;5.68;;;2.40;;
75012;SDS011;63567;49.956;20.130;2023-05-29T03:10:35;6.93;;;2.33;;
75012;SDS011;63567;49.956;20.130;2023-05-29T03:13:00;3.60;;;2.07;;
75012;SDS011;63567;49.956;20.130;2023-05-29T03:15:26;4.15;;;2.05;;
75012;SDS011;63567;49.956;20.130;2023-05-29T03:17:51;5.03;;;2.50;;
75012;SDS011;63567;49.956;20.130;2023-05-29T03:20:16;4.33;;;2.43;;
75012;SDS011;63567;49.956;20.130;2023-05-29T03:22:42;4.05;;;2.05;;
75012;SDS011;63567;49.956;20.130;2023-05-29T03:25:07;5.20;;;2.30;;
75012;SDS011;63567;49.956;20.130;2023-05-29T03:27:33;4.07;;;2.25;;
75012;SDS011;63567;49.956;20.130;2023-05-29T03:29:58;4.80;;;2.20;;
75012;SDS011;63567;49.956;20.130;2023-05-29T03:32:24;3.67;;;2.08;;
75012;SDS011;63567;49.956;20.130;2023-05-29T03:34:49;4.18;;;2.22;;
75012;SDS011;63567;49.956;20.130;2023-05-29T03:37:15;5.33;;;2.40;;
75012;SDS011;63567;49.956;20.130;2023-05-29T03:39:40;4.65;;;1.73;;
75012;SDS011;63567;49.956;20.130;2023-05-29T03:42:05;4.43;;;2.00;;
75012;SDS011;63567;49.956;20.130;2023-05-29T03:44:31;5.33;;;2.10;;
75012;SDS011;63567;49.956;20.130;2023-05-29T03:46:56;4.67;;;2.10;;
75012;SDS011;63567;49.956;20.130;2023-05-29T03:49:21;4.10;;;1.80;;
75012;SDS011;63567;49.956;20.130;2023-05-29T03:51:47;4.67;;;2.13;;
75012;SDS011;63567;49.956;20.130;2023-05-29T03:54:13;4.35;;;1.80;;
75012;SDS011;63567;49.956;20.130;2023-05-29T03:56:38;3.58;;;1.95;;
75012;SDS011;63567;49.956;20.130;2023-05-29T03:59:04;5.50;;;1.70;;
75012;SDS011;63567;49.956;20.130;2023-05-29T04:01:29;3.93;;;1.90;;
75012;SDS011;63567;49.956;20.130;2023-05-29T04:03:54;5.75;;;2.25;;
75012;SDS011;63567;49.956;20.130;2023-05-29T04:06:20;3.90;;;1.85;;
75012;SDS011;63567;49.956;20.130;2023-05-29T04:08:46;5.03;;;2.00;;
75012;SDS011;63567;49.956;20.130;2023-05-29T04:11:12;4.13;;;2.10;;
75012;SDS011;63567;49.956;20.130;2023-05-29T04:13:38;3.47;;;1.85;;
75012;SDS011;63567;49.956;20.130;2023-05-29T04:16:04;3.80;;;1.50;;
75012;SDS011;63567;49.956;20.130;2023-05-29T04:18:29;5.18;;;2.00;;
75012;SDS011;63567;49.956;20.130;2023-05-29T04:20:54;4.07;;;2.00;;
75012;SDS011;63567;49.956;20.130;2023-05-29T04:23:20;4.82;;;1.80;;
75012;SDS011;63567;49.956;20.130;2023-05-29T04:25:46;4.03;;;1.92;;
75012;SDS011;63567;49.956;20.130;2023-05-29T04:28:11;3.25;;;1.88;;
75012;SDS011;63567;49.956;20.130;2023-05-29T04:30:36;3.67;;;1.93;;
75012;SDS011;63567;49.956;20.130;2023-05-29T04:33:04;2.65;;;1.60;;
75012;SDS011;63567;49.956;20.130;2023-05-29T04:35:29;4.32;;;2.25;;
75012;SDS011;63567;49.956;20.130;2023-05-29T04:37:54;3.77;;;2.10;;
75012;SDS011;63567;49.956;20.130;2023-05-29T04:40:21;4.15;;;1.73;;
75012;SDS011;63567;49.956;20.130;2023-05-29T04:42:46;4.63;;;2.03;;
75012;SDS011;63567;49.956;20.130;2023-05-29T04:45:12;4.53;;;2.17;;
75012;SDS011;63567;49.956;20.130;2023-05-29T04:47:37;4.23;;;2.20;;
75012;SDS011;63567;49.956;20.130;2023-05-29T04:50:11;3.42;;;1.80;;
75012;SDS011;63567;49.956;20.130;2023-05-29T04:52:38;4.78;;;2.00;;
75012;SDS011;63567;49.956;20.130;2023-05-29T04:55:03;4.38;;;1.92;;
75012;SDS011;63567;49.956;20.130;2023-05-29T04:57:29;3.83;;;2.17;;
75012;SDS011;63567;49.956;20.130;2023-05-29T04:59:55;3.30;;;1.63;;
75012;SDS011;63567;49.956;20.130;2023-05-29T05:02:20;4.10;;;1.95;;
75012;SDS011;63567;49.956;20.130;2023-05-29T05:04:46;4.57;;;2.27;;
75012;SDS011;63567;49.956;20.130;2023-05-29T05:07:11;5.18;;;2.10;;
75012;SDS011;63567;49.956;20.130;2023-05-29T05:09:37;3.38;;;2.03;;
75012;SDS011;63567;49.956;20.130;2023-05-29T05:12:03;4.50;;;2.10;;
75012;SDS011;63567;49.956;20.130;2023-05-29T05:14:28;4.50;;;2.20;;
75012;SDS011;63567;49.956;20.130;2023-05-29T05:16:53;7.13;;;2.53;;
75012;SDS011;63567;49.956;20.130;2023-05-29T05:19:19;3.90;;;2.10;;
75012;SDS011;63567;49.956;20.130;2023-05-29T05:21:44;4.25;;;2.22;;
75012;SDS011;63567;49.956;20.130;2023-05-29T05:24:09;3.47;;;2.37;;
75012;SDS011;63567;49.956;20.130;2023-05-29T05:26:35;5.43;;;2.20;;
75012;SDS011;63567;49.956;20.130;2023-05-29T05:29:00;4.80;;;2.20;;
75012;SDS011;63567;49.956;20.130;2023-05-29T05:31:26;4.35;;;2.28;;
75012;SDS011;63567;49.956;20.130;2023-05-29T05:33:51;4.50;;;2.42;;
75012;SDS011;63567;49.956;20.130;2023-05-29T05:36:17;3.72;;;2.22;;
75012;SDS011;63567;49.956;20.130;2023-05-29T05:38:42;5.13;;;2.53;;
75012;SDS011;63567;49.956;20.130;2023-05-29T05:41:07;4.27;;;2.50;;
75012;SDS011;63567;49.956;20.130;2023-05-29T05:43:32;5.37;;;2.30;;
75012;SDS011;63567;49.956;20.130;2023-05-29T05:45:58;4.37;;;2.40;;
75012;SDS011;63567;49.956;20.130;2023-05-29T05:48:23;4.40;;;2.22;;
75012;SDS011;63567;49.956;20.130;2023-05-29T05:50:48;4.27;;;2.57;;
75012;SDS011;63567;49.956;20.130;2023-05-29T05:53:13;4.70;;;2.60;;
75012;SDS011;63567;49.956;20.130;2023-05-29T05:55:39;5.23;;;2.60;;
75012;SDS011;63567;49.956;20.130;2023-05-29T05:58:04;5.07;;;2.60;;
75012;SDS011;63567;49.956;20.130;2023-05-29T06:00:29;5.13;;;2.65;;
75012;SDS011;63567;49.956;20.130;2023-05-29T06:02:55;4.53;;;2.43;;
75012;SDS011;63567;49.956;20.130;2023-05-29T06:05:20;6.15;;;2.70;;
75012;SDS011;63567;49.956;20.130;2023-05-29T06:07:46;4.43;;;2.72;;
75012;SDS011;63567;49.956;20.130;2023-05-29T06:10:11;5.20;;;2.80;;
75012;SDS011;63567;49.956;20.130;2023-05-29T06:12:36;4.33;;;2.40;;
75012;SDS011;63567;49.956;20.130;2023-05-29T06:15:02;4.35;;;2.80;;
75012;SDS011;63567;49.956;20.130;2023-05-29T06:17:29;5.72;;;3.10;;
75012;SDS011;63567;49.956;20.130;2023-05-29T06:19:54;5.57;;;2.95;;
75012;SDS011;63567;49.956;20.130;2023-05-29T06:22:20;4.53;;;2.73;;
75012;SDS011;63567;49.956;20.130;2023-05-29T06:24:45;6.65;;;2.67;;
75012;SDS011;63567;49.956;20.130;2023-05-29T06:27:10;5.90;;;3.00;;
75012;SDS011;63567;49.956;20.130;2023-05-29T06:29:35;4.53;;;2.90;;
75012;SDS011;63567;49.956;20.130;2023-05-29T06:32:01;5.80;;;3.30;;
75012;SDS011;63567;49.956;20.130;2023-05-29T06:34:26;6.17;;;2.87;;
75012;SDS011;63567;49.956;20.130;2023-05-29T06:36:51;7.00;;;3.45;;
75012;SDS011;63567;49.956;20.130;2023-05-29T06:39:17;4.67;;;2.80;;
75012;SDS011;63567;49.956;20.130;2023-05-29T06:41:43;5.25;;;3.10;;
75012;SDS011;63567;49.956;20.130;2023-05-29T06:44:08;5.63;;;2.97;;
75012;SDS011;63567;49.956;20.130;2023-05-29T06:46:33;4.97;;;3.03;;
75012;SDS011;63567;49.956;20.130;2023-05-29T06:48:59;6.80;;;2.60;;
75012;SDS011;63567;49.956;20.130;2023-05-29T06:51:24;5.30;;;3.27;;
75012;SDS011;63567;49.956;20.130;2023-05-29T06:53:49;4.80;;;3.40;;
75012;SDS011;63567;49.956;20.130;2023-05-29T06:56:14;5.63;;;3.00;;
75012;SDS011;63567;49.956;20.130;2023-05-29T06:58:40;5.22;;;3.10;;
75012;SDS011;63567;49.956;20.130;2023-05-29T07:01:05;6.10;;;3.07;;
75012;SDS011;63567;49.956;20.130;2023-05-29T07:03:31;4.60;;;2.92;;
75012;SDS011;63567;49.956;20.130;2023-05-29T07:05:56;4.17;;;2.80;;
75012;SDS011;63567;49.956;20.130;2023-05-29T07:08:22;5.63;;;3.40;;
75012;SDS011;63567;49.956;20.130;2023-05-29T07:10:47;5.47;;;3.13;;
75012;SDS011;63567;49.956;20.130;2023-05-29T07:13:14;5.95;;;3.13;;
75012;SDS011;63567;49.956;20.130;2023-05-29T07:15:41;5.50;;;3.15;;
75012;SDS011;63567;49.956;20.130;2023-05-29T07:18:06;5.57;;;3.07;;
75012;SDS011;63567;49.956;20.130;2023-05-29T07:20:31;6.63;;;3.30;;
75012;SDS011;63567;49.956;20.130;2023-05-29T07:22:57;5.40;;;3.00;;
75012;SDS011;63567;49.956;20.130;2023-05-29T07:25:22;5.77;;;2.80;;
75012;SDS011;63567;49.956;20.130;2023-05-29T07:27:47;4.60;;;3.27;;
75012;SDS011;63567;49.956;20.130;2023-05-29T07:30:12;5.33;;;3.03;;
75012;SDS011;63567;49.956;20.130;2023-05-29T07:32:38;5.23;;;3.33;;
75012;SDS011;63567;49.956;20.130;2023-05-29T07:35:03;5.20;;;2.93;;
75012;SDS011;63567;49.956;20.130;2023-05-29T07:37:29;5.55;;;3.00;;
75012;SDS011;63567;49.956;20.130;2023-05-29T07:39:55;4.93;;;2.90;;
75012;SDS011;63567;49.956;20.130;2023-05-29T07:42:20;6.03;;;2.90;;
75012;SDS011;63567;49.956;20.130;2023-05-29T07:44:45;6.17;;;3.00;;
75012;SDS011;63567;49.956;20.130;2023-05-29T07:47:11;5.47;;;3.03;;
75012;SDS011;63567;49.956;20.130;2023-05-29T07:49:36;6.00;;;3.10;;
75012;SDS011;63567;49.956;20.130;2023-05-29T07:52:02;5.40;;;3.17;;
75012;SDS011;63567;49.956;20.130;2023-05-29T07:54:28;4.10;;;3.10;;
75012;SDS011;63567;49.956;20.130;2023-05-29T07:56:53;6.23;;;3.37;;
75012;SDS011;63567;49.956;20.130;2023-05-29T07:59:19;4.45;;;2.95;;
75012;SDS011;63567;49.956;20.130;2023-05-29T08:01:44;6.00;;;3.30;;
75012;SDS011;63567;49.956;20.130;2023-05-29T08:04:09;4.63;;;3.00;;
75012;SDS011;63567;49.956;20.130;2023-05-29T08:06:34;5.50;;;2.90;;
75012;SDS011;63567;49.956;20.130;2023-05-29T08:09:01;6.85;;;2.92;;
75012;SDS011;63567;49.956;20.130;2023-05-29T08:11:27;5.32;;;3.22;;
75012;SDS011;63567;49.956;20.130;2023-05-29T08:13:52;5.70;;;3.65;;
75012;SDS011;63567;49.956;20.130;2023-05-29T08:16:17;5.53;;;3.37;;
75012;SDS011;63567;49.956;20.130;2023-05-29T08:18:42;4.20;;;2.80;;
75012;SDS011;63567;49.956;20.130;2023-05-29T08:21:08;5.37;;;2.83;;
75012;SDS011;63567;49.956;20.130;2023-05-29T08:23:35;4.60;;;3.42;;
75012;SDS011;63567;49.956;20.130;2023-05-29T08:26:00;5.88;;;3.38;;
75012;SDS011;63567;49.956;20.130;2023-05-29T08:28:27;5.68;;;3.28;;
75012;SDS011;63567;49.956;20.130;2023-05-29T08:30:53;4.90;;;3.17;;
75012;SDS011;63567;49.956;20.130;2023-05-29T08:33:18;6.30;;;2.90;;
75012;SDS011;63567;49.956;20.130;2023-05-29T08:35:43;5.57;;;3.03;;
75012;SDS011;63567;49.956;20.130;2023-05-29T08:38:08;5.10;;;3.13;;
75012;SDS011;63567;49.956;20.130;2023-05-29T08:40:34;4.67;;;2.80;;
75012;SDS011;63567;49.956;20.130;2023-05-29T08:43:00;5.73;;;3.03;;
75012;SDS011;63567;49.956;20.130;2023-05-29T08:45:32;5.90;;;3.47;;
75012;SDS011;63567;49.956;20.130;2023-05-29T08:47:59;4.30;;;2.63;;
75012;SDS011;63567;49.956;20.130;2023-05-29T08:50:25;4.35;;;3.00;;
75012;SDS011;63567;49.956;20.130;2023-05-29T08:52:51;5.22;;;3.22;;
75012;SDS011;63567;49.956;20.130;2023-05-29T08:55:16;3.47;;;2.97;;
75012;SDS011;63567;49.956;20.130;2023-05-29T08:57:41;5.10;;;3.07;;
75012;SDS011;63567;49.956;20.130;2023-05-29T09:00:08;5.35;;;3.30;;
75012;SDS011;63567;49.956;20.130;2023-05-29T09:05:03;4.97;;;3.20;;
75012;SDS011;63567;49.956;20.130;2023-05-29T09:07:29;3.63;;;2.70;;
75012;SDS011;63567;49.956;20.130;2023-05-29T09:09:56;3.97;;;2.70;;
75012;SDS011;63567;49.956;20.130;2023-05-29T09:12:21;5.67;;;2.80;;
75012;SDS011;63567;49.956;20.130;2023-05-29T09:14:46;4.65;;;3.05;;
75012;SDS011;63567;49.956;20.130;2023-05-29T09:17:12;4.10;;;3.03;;
75012;SDS011;63567;49.956;20.130;2023-05-29T09:19:38;5.45;;;2.97;;
75012;SDS011;63567;49.956;20.130;2023-05-29T09:22:06;5.88;;;3.40;;
75012;SDS011;63567;49.956;20.130;2023-05-29T09:24:35;5.57;;;3.13;;
75012;SDS011;63567;49.956;20.130;2023-05-29T09:27:03;4.30;;;3.03;;
75012;SDS011;63567;49.956;20.130;2023-05-29T09:29:32;5.32;;;3.53;;
75012;SDS011;63567;49.956;20.130;2023-05-29T09:31:58;5.47;;;2.88;;
75012;SDS011;63567;49.956;20.130;2023-05-29T09:34:25;4.47;;;3.30;;
75012;SDS011;63567;49.956;20.130;2023-05-29T09:36:52;4.43;;;2.88;;
75012;SDS011;63567;49.956;20.130;2023-05-29T09:39:18;3.85;;;3.05;;
75012;SDS011;63567;49.956;20.130;2023-05-29T09:41:44;3.88;;;2.70;;
75012;SDS011;63567;49.956;20.130;2023-05-29T09:44:13;4.90;;;3.70;;
75012;SDS011;63567;49.956;20.130;2023-05-29T09:46:40;4.63;;;3.00;;
75012;SDS011;63567;49.956;20.130;2023-05-29T09:49:12;5.07;;;2.90;;
75012;SDS011;63567;49.956;20.130;2023-05-29T09:51:38;4.35;;;2.60;;
75012;SDS011;63567;49.956;20.130;2023-05-29T09:54:17;4.10;;;2.70;;
75012;SDS011;63567;49.956;20.130;2023-05-29T09:56:43;5.28;;;3.08;;
75012;SDS011;63567;49.956;20.130;2023-05-29T09:59:13;3.88;;;2.72;;
75012;SDS011;63567;49.956;20.130;2023-05-29T10:01:40;4.60;;;3.00;;
75012;SDS011;63567;49.956;20.130;2023-05-29T10:04:07;4.22;;;2.85;;
75012;SDS011;63567;49.956;20.130;2023-05-29T10:06:35;4.50;;;2.90;;
75012;SDS011;63567;49.956;20.130;2023-05-29T10:09:07;4.28;;;3.65;;
75012;SDS011;63567;49.956;20.130;2023-05-29T10:11:35;4.70;;;3.10;;
75012;SDS011;63567;49.956;20.130;2023-05-29T10:14:03;4.65;;;2.70;;
75012;SDS011;63567;49.956;20.130;2023-05-29T10:16:30;4.47;;;3.25;;
75012;SDS011;63567;49.956;20.130;2023-05-29T10:19:00;6.35;;;3.53;;
75012;SDS011;63567;49.956;20.130;2023-05-29T10:21:27;5.95;;;3.70;;
75012;SDS011;63567;49.956;20.130;2023-05-29T10:23:54;5.35;;;3.03;;
75012;SDS011;63567;49.956;20.130;2023-05-29T10:26:21;4.63;;;3.00;;
75012;SDS011;63567;49.956;20.130;2023-05-29T10:29:13;5.75;;;3.13;;
75012;SDS011;63567;49.956;20.130;2023-05-29T10:34:36;5.07;;;3.60;;
75012;SDS011;63567;49.956;20.130;2023-05-29T10:37:09;5.55;;;3.22;;
75012;SDS011;63567;49.956;20.130;2023-05-29T10:39:49;4.70;;;3.13;;
75012;SDS011;63567;49.956;20.130;2023-05-29T10:42:40;5.53;;;3.30;;
75012;SDS011;63567;49.956;20.130;2023-05-29T10:45:07;4.47;;;3.53;;
75012;SDS011;63567;49.956;20.130;2023-05-29T10:47:32;6.82;;;4.05;;
75012;SDS011;63567;49.956;20.130;2023-05-29T10:50:01;4.40;;;3.47;;
75012;SDS011;63567;49.956;20.130;2023-05-29T10:52:30;4.78;;;3.72;;
75012;SDS011;63567;49.956;20.130;2023-05-29T10:54:56;5.03;;;3.50;;
75012;SDS011;63567;49.956;20.130;2023-05-29T10:57:22;5.15;;;3.80;;
75012;SDS011;63567;49.956;20.130;2023-05-29T10:59:48;4.38;;;3.60;;
75012;SDS011;63567;49.956;20.130;2023-05-29T11:02:22;4.88;;;3.65;;
75012;SDS011;63567;49.956;20.130;2023-05-29T11:07:50;5.00;;;3.70;;
75012;SDS011;63567;49.956;20.130;2023-05-29T11:10:40;5.45;;;4.95;;
75012;SDS011;63567;49.956;20.130;2023-05-29T11:16:35;4.72;;;3.60;;
75012;SDS011;63567;49.956;20.130;2023-05-29T11:19:08;4.97;;;4.20;;
75012;SDS011;63567;49.956;20.130;2023-05-29T11:24:26;5.57;;;4.20;;
75012;SDS011;63567;49.956;20.130;2023-05-29T11:26:53;5.22;;;3.80;;
75012;SDS011;63567;49.956;20.130;2023-05-29T11:29:27;4.53;;;3.90;;
75012;SDS011;63567;49.956;20.130;2023-05-29T11:32:05;5.50;;;4.70;;
75012;SDS011;63567;49.956;20.130;2023-05-29T11:34:39;7.30;;;4.40;;
75012;SDS011;63567;49.956;20.130;2023-05-29T11:37:06;6.95;;;5.05;;
75012;SDS011;63567;49.956;20.130;2023-05-29T11:39:35;5.30;;;4.22;;
75012;SDS011;63567;49.956;20.130;2023-05-29T11:42:00;5.63;;;4.60;;
75012;SDS011;63567;49.956;20.130;2023-05-29T11:44:26;4.95;;;3.70;;
75012;SDS011;63567;49.956;20.130;2023-05-29T11:47:02;5.20;;;4.70;;
75012;SDS011;63567;49.956;20.130;2023-05-29T11:49:29;5.68;;;4.15;;
75012;SDS011;63567;49.956;20.130;2023-05-29T11:52:32;5.65;;;4.55;;
75012;SDS011;63567;49.956;20.130;2023-05-29T11:54:50;5.90;;;4.65;;
75012;SDS011;63567;49.956;20.130;2023-05-29T11:57:21;5.85;;;5.20;;
75012;SDS011;63567;49.956;20.130;2023-05-29T11:59:47;5.72;;;4.53;;
75012;SDS011;63567;49.956;20.130;2023-05-29T12:02:14;5.80;;;4.93;;
75012;SDS011;63567;49.956;20.130;2023-05-29T12:04:39;5.65;;;5.13;;
75012;SDS011;63567;49.956;20.130;2023-05-29T12:07:20;6.43;;;5.83;;
75012;SDS011;63567;49.956;20.130;2023-05-29T12:09:45;5.15;;;4.20;;
75012;SDS011;63567;49.956;20.130;2023-05-29T12:12:12;5.43;;;4.93;;
75012;SDS011;63567;49.956;20.130;2023-05-29T12:14:37;6.00;;;4.87;;
75012;SDS011;63567;49.956;20.130;2023-05-29T12:17:03;6.33;;;5.13;;
75012;SDS011;63567;49.956;20.130;2023-05-29T12:19:29;8.38;;;7.75;;
75012;SDS011;63567;49.956;20.130;2023-05-29T12:21:56;5.50;;;5.00;;
75012;SDS011;63567;49.956;20.130;2023-05-29T12:24:21;5.25;;;4.75;;
75012;SDS011;63567;49.956;20.130;2023-05-29T12:26:47;6.77;;;5.10;;
75012;SDS011;63567;49.956;20.130;2023-05-29T12:29:12;6.30;;;4.72;;
75012;SDS011;63567;49.956;20.130;2023-05-29T12:31:37;6.90;;;5.43;;
75012;SDS011;63567;49.956;20.130;2023-05-29T12:34:07;7.60;;;6.97;;
75012;SDS011;63567;49.956;20.130;2023-05-29T12:36:34;6.25;;;5.53;;
75012;SDS011;63567;49.956;20.130;2023-05-29T12:38:59;5.17;;;4.60;;
75012;SDS011;63567;49.956;20.130;2023-05-29T12:44:01;6.18;;;5.63;;
75012;SDS011;63567;49.956;20.130;2023-05-29T12:46:27;7.22;;;5.70;;
75012;SDS011;63567;49.956;20.130;2023-05-29T12:49:10;7.15;;;6.45;;
75012;SDS011;63567;49.956;20.130;2023-05-29T12:51:39;6.38;;;5.75;;
75012;SDS011;63567;49.956;20.130;2023-05-29T12:54:05;6.50;;;5.85;;
75012;SDS011;63567;49.956;20.130;2023-05-29T12:56:31;12.77;;;11.77;;
75012;SDS011;63567;49.956;20.130;2023-05-29T12:58:56;6.63;;;6.07;;
75012;SDS011;63567;49.956;20.130;2023-05-29T13:01:21;6.87;;;6.23;;
75012;SDS011;63567;49.956;20.130;2023-05-29T13:03:48;7.07;;;6.55;;
75012;SDS011;63567;49.956;20.130;2023-05-29T13:06:13;12.23;;;11.27;;
75012;SDS011;63567;49.956;20.130;2023-05-29T13:08:39;12.15;;;11.35;;
75012;SDS011;63567;49.956;20.130;2023-05-29T13:11:04;12.80;;;11.90;;
75012;SDS011;63567;49.956;20.130;2023-05-29T13:13:29;7.63;;;6.93;;
75012;SDS011;63567;49.956;20.130;2023-05-29T13:15:55;7.10;;;6.20;;
75012;SDS011;63567;49.956;20.130;2023-05-29T13:18:20;7.67;;;7.00;;
75012;SDS011;63567;49.956;20.130;2023-05-29T13:20:45;7.67;;;6.90;;
75012;SDS011;63567;49.956;20.130;2023-05-29T13:23:11;11.70;;;11.00;;
75012;SDS011;63567;49.956;20.130;2023-05-29T13:25:36;7.03;;;6.43;;
75012;SDS011;63567;49.956;20.130;2023-05-29T13:28:01;6.82;;;6.22;;
75012;SDS011;63567;49.956;20.130;2023-05-29T13:30:27;7.87;;;7.17;;
75012;SDS011;63567;49.956;20.130;2023-05-29T13:32:52;8.33;;;7.47;;
75012;SDS011;63567;49.956;20.130;2023-05-29T13:35:18;8.40;;;7.63;;
75012;SDS011;63567;49.956;20.130;2023-05-29T13:37:43;7.43;;;6.90;;
75012;SDS011;63567;49.956;20.130;2023-05-29T13:40:09;9.17;;;8.37;;
75012;SDS011;63567;49.956;20.130;2023-05-29T13:42:35;7.65;;;7.15;;
75012;SDS011;63567;49.956;20.130;2023-05-29T13:45:00;8.10;;;7.40;;
75012;SDS011;63567;49.956;20.130;2023-05-29T13:47:26;8.73;;;8.13;;
75012;SDS011;63567;49.956;20.130;2023-05-29T13:49:56;7.93;;;7.22;;
75012;SDS011;63567;49.956;20.130;2023-05-29T13:52:22;9.60;;;8.90;;
75012;SDS011;63567;49.956;20.130;2023-05-29T13:54:47;9.10;;;8.50;;
75012;SDS011;63567;49.956;20.130;2023-05-29T13:57:12;14.83;;;13.93;;
75012;SDS011;63567;49.956;20.130;2023-05-29T13:59:38;7.43;;;6.93;;
75012;SDS011;63567;49.956;20.130;2023-05-29T14:02:03;7.67;;;7.07;;
75012;SDS011;63567;49.956;20.130;2023-05-29T14:04:29;8.50;;;7.90;;
75012;SDS011;63567;49.956;20.130;2023-05-29T14:06:55;7.95;;;7.35;;
75012;SDS011;63567;49.956;20.130;2023-05-29T14:09:21;8.70;;;8.10;;
75012;SDS011;63567;49.956;20.130;2023-05-29T14:11:53;9.27;;;8.55;;
75012;SDS011;63567;49.956;20.130;2023-05-29T14:14:19;8.90;;;8.20;;
75012;SDS011;63567;49.956;20.130;2023-05-29T14:16:44;9.67;;;9.03;;
75012;SDS011;63567;49.956;20.130;2023-05-29T14:19:10;8.43;;;7.73;;
75012;SDS011;63567;49.956;20.130;2023-05-29T14:21:35;8.23;;;7.60;;
75012;SDS011;63567;49.956;20.130;2023-05-29T14:24:00;10.98;;;10.07;;
75012;SDS011;63567;49.956;20.130;2023-05-29T14:26:26;7.77;;;6.97;;
75012;SDS011;63567;49.956;20.130;2023-05-29T14:28:51;15.87;;;14.97;;
75012;SDS011;63567;49.956;20.130;2023-05-29T14:31:16;12.23;;;11.43;;
75012;SDS011;63567;49.956;20.130;2023-05-29T14:33:41;10.73;;;9.87;;
75012;SDS011;63567;49.956;20.130;2023-05-29T14:36:07;9.47;;;8.77;;
75012;SDS011;63567;49.956;20.130;2023-05-29T14:38:32;9.23;;;8.43;;
75012;SDS011;63567;49.956;20.130;2023-05-29T14:40:57;9.97;;;9.30;;
75012;SDS011;63567;49.956;20.130;2023-05-29T14:43:23;9.40;;;8.70;;
75012;SDS011;63567;49.956;20.130;2023-05-29T14:45:48;15.47;;;14.67;;
75012;SDS011;63567;49.956;20.130;2023-05-29T14:48:13;9.00;;;8.37;;
75012;SDS011;63567;49.956;20.130;2023-05-29T14:50:41;10.02;;;9.30;;
75012;SDS011;63567;49.956;20.130;2023-05-29T14:53:06;8.48;;;7.78;;
75012;SDS011;63567;49.956;20.130;2023-05-29T14:55:31;12.40;;;11.50;;